Fair Play, Missouri
Current Conditions -  °F | °C
As of 11:52 AM on Thursday 23 Oct 2014 (Local Time) from KSGF Reporting Station
Overcast Overcast  
Wind Chill: 56°   Ceiling: 9500
Heat Index: 56°   Visibility: 10mi
Dew Point: 49°   Wind: 9mph
Humidity: 77%   Direction: 170°S
Pressure: 30.17"   Gusts: NA
Location:  37.63°N, 93.57°W
Report Text: KSGF 231652Z 17008KT 10SM FEW043 SCT050 OVC095 13/09 A3017 RMK AO2 RAE1556 SLP215 P0000 T01330094
Loading
Personal Weather Stations






























Interactive Weather Map
Tropical Storm Tracking
New forecast layout! Learn more

10-Day Weather Forecast

Advertisements
Track Severe Weather on mobile